Flight Track Log - Related Links

Times and Time Zones

All times are in EDT time to prevent confusion due to time zone crossing. See the SWA1004 flight status page for this flight to view local times or setup timezone preferences in your user account.

Time Position Orientation Groundspeed Altitude Reporting Facility
EDT Latitude Longitude Course Direction KTS MPH feet Rate Location/Type
Fri 12:27:39 PM 41.7667 -87.8167 201° Southwest 181 208 2,600  Level Chicago TRACON
Fri 12:29:07 PM 41.6969 -87.8775 213° Southwest 216 249 7,000 3,200 Climbing Chicago Center
Fri 12:30:09 PM 41.6386 -87.9383 218° Southwest 262 302 10,600 2,419 Climbing Chicago Center
Fri 12:31:11 PM 41.5783 -87.9997 217° Southwest 273 314 12,000 1,694 Climbing Chicago Center
Fri 12:32:13 PM 41.5175 -88.0614 217° Southwest 277 319 14,100 2,323 Climbing Chicago Center
Fri 12:33:00 PM 41.2852 -88.2241 201° Southwest  Level FlightAware Approximate
Fri 12:33:15 PM 41.4406 -88.1400 217° Southwest 314 361 16,800  Level Chicago Center
Fri 12:34:17 PM 41.3628 -88.1997 210° Southwest 336 387 20,200 2,952 Climbing Chicago Center
Fri 12:35:19 PM 41.2719 -88.2394 198° South 345 397 22,900 2,226 Climbing Chicago Center
Fri 12:36:21 PM 41.1772 -88.2839 199° South 360 414 24,800 1,935 Climbing Chicago Center
Fri 12:37:23 PM 41.0533 -88.3392 199° South 394 453 26,900 1,839 Climbing Chicago Center
Fri 12:38:25 PM 40.9456 -88.3886 199° South 407 468 28,600 1,728 Climbing Chicago Center
Fri 12:39:28 PM 40.8356 -88.4386 199° South 420 483 30,500 1,968 Climbing Chicago Center
Fri 12:40:30 PM 40.7261 -88.4861 198° South 416 479 32,700 2,032 Climbing Chicago Center
Fri 12:41:32 PM 40.6194 -88.5317 198° South 405 466 34,700 1,597 Climbing Chicago Center
Fri 12:42:34 PM 40.5158 -88.5778 199° South 396 456 36,000 1,113 Climbing Chicago Center
Fri 12:43:36 PM 40.4003 -88.6286 199° South 409 471 37,000 968 Climbing Chicago Center
Fri 12:44:38 PM 40.2983 -88.6900 205° Southwest 405 466 38,000 484 Climbing Chicago Center
Fri 12:45:40 PM 40.2175 -88.7942 225° Southwest 405 466 38,000  Level Chicago Center
Fri 12:46:42 PM 40.1214 -88.9169 224° Southwest 399 459 38,000  Level Chicago Center
Fri 12:47:34 PM 40.0547 -88.9997 224° Southwest 404 465 38,000  Level Kansas City Center
Fri 12:48:34 PM 39.9736 -89.1031 224° Southwest 405 466 38,000  Level Kansas City Center
Fri 12:49:35 PM 39.8922 -89.2067 224° Southwest 406 467 38,000  Level Kansas City Center
Fri 12:50:39 PM 39.8108 -89.3069 223° Southwest 404 465 38,000  Level Kansas City Center
Fri 12:51:40 PM 39.7308 -89.4106 225° Southwest 404 465 38,000  Level Kansas City Center
Fri 12:52:44 PM 39.6389 -89.5231 223° Southwest 403 464 38,000  Level Kansas City Center
Fri 12:53:45 PM 39.5592 -89.6231 224° Southwest 401 461 38,000  Level Kansas City Center
Fri 12:54:46 PM 39.4811 -89.7219 224° Southwest 395 455 38,000  Level Kansas City Center
Fri 12:55:49 PM 39.4019 -89.8194 224° Southwest 394 453 38,000  Level Kansas City Center
Fri 12:56:50 PM 39.3078 -89.9361 224° Southwest 393 452 38,000  Level Kansas City Center
Fri 12:57:53 PM 39.2303 -90.0328 224° Southwest 391 450 38,000  Level Kansas City Center
Fri 12:58:54 PM 39.1519 -90.1275 223° Southwest 388 447 38,000  Level Kansas City Center
Fri 12:59:58 PM 39.0739 -90.2236 224° Southwest 389 448 38,000  Level Kansas City Center
Fri 01:00:59 PM 38.9964 -90.3186 224° Southwest 388 447 38,000  Level Kansas City Center
Fri 01:02:02 PM 38.9072 -90.4261 223° Southwest 376 433 38,000  Level Kansas City Center
Fri 01:03:03 PM 38.8308 -90.5206 224° Southwest 375 432 38,000  Level Kansas City Center
Fri 01:04:05 PM 38.7511 -90.6103 221° Southwest 377 434 38,000  Level Kansas City Center
Fri 01:05:08 PM 38.6725 -90.6997 222° Southwest 386 444 38,000  Level Kansas City Center
Fri 01:06:08 PM 38.5953 -90.7892 222° Southwest 382 440 38,000  Level Kansas City Center
Fri 01:07:12 PM 38.5025 -90.8958 222° Southwest 378 435 38,000  Level Kansas City Center
Fri 01:08:12 PM 38.4247 -90.9839 222° Southwest 377 434 38,000  Level Kansas City Center
Fri 01:09:16 PM 38.3456 -91.0728 221° Southwest 379 436 38,000  Level Kansas City Center
Fri 01:10:16 PM 38.2672 -91.1625 222° Southwest 380 437 38,000  Level Kansas City Center
Fri 01:11:20 PM 38.1886 -91.2517 222° Southwest 381 438 38,000  Level Kansas City Center
Fri 01:12:23 PM 38.1006 -91.3517 222° Southwest 384 442 38,000  Level Kansas City Center
Fri 01:13:25 PM 38.0186 -91.4422 221° Southwest 386 444 38,000  Level Kansas City Center
Fri 01:14:26 PM 37.9397 -91.5328 222° Southwest 382 440 38,000  Level Kansas City Center
Fri 01:15:27 PM 37.8594 -91.6222 221° Southwest 380 437 38,000  Level Kansas City Center
Fri 01:16:30 PM 37.7625 -91.7311 222° Southwest 382 440 38,000  Level Kansas City Center
Fri 01:17:33 PM 37.6836 -91.8203 222° Southwest 379 436 38,000  Level Kansas City Center
Fri 01:18:35 PM 37.6022 -91.9106 221° Southwest 382 440 38,000  Level Kansas City Center
Fri 01:19:35 PM 37.5225 -91.9989 221° Southwest 378 435 38,000  Level Kansas City Center
Fri 01:20:38 PM 37.4408 -92.0892 221° Southwest 382 440 38,000  Level Kansas City Center
Fri 01:21:41 PM 37.3586 -92.1811 222° Southwest 387 445 38,000  Level Kansas City Center
Fri 01:22:43 PM 37.2761 -92.2725 221° Southwest 390 449 38,000  Level Kansas City Center
Fri 01:23:43 PM 37.1933 -92.3631 221° Southwest 391 450 38,000  Level Kansas City Center
Fri 01:24:45 PM 37.0953 -92.4703 221° Southwest 388 447 38,000  Level Kansas City Center
Fri 01:25:49 PM 37.0139 -92.5589 221° Southwest 385 443 38,000  Level Kansas City Center
Fri 01:26:49 PM 36.9331 -92.6458 221° Southwest 383 441 38,000  Level Kansas City Center
Fri 01:27:44 PM 36.8636 -92.7244 222° Southwest 390 449 38,000  Level Memphis Center
Fri 01:28:44 PM 36.7789 -92.7997 215° Southwest 396 456 38,000  Level Memphis Center
Fri 01:29:44 PM 36.6897 -92.8772 215° Southwest 390 449 38,000  Level Memphis Center
Fri 01:30:44 PM 36.6028 -92.9547 216° Southwest 390 449 38,000  Level Memphis Center
Fri 01:31:45 PM 36.5178 -93.0267 214° Southwest 390 449 38,000  Level Memphis Center
Fri 01:32:44 PM 36.4286 -93.1039 215° Southwest 390 449 38,000  Level Memphis Center
Fri 01:33:44 PM 36.3394 -93.1833 216° Southwest 390 449 38,000  Level Memphis Center
Fri 01:34:45 PM 36.2500 -93.2600 215° Southwest 390 449 38,000  Level Memphis Center
Fri 01:35:44 PM 36.1650 -93.3342 215° Southwest 390 449 38,000  Level Memphis Center
Fri 01:36:44 PM 36.0775 -93.4081 214° Southwest 390 449 38,000  Level Memphis Center
Fri 01:37:45 PM 35.9903 -93.4842 215° Southwest 390 449 38,000  Level Memphis Center
Fri 01:38:44 PM 35.9028 -93.5578 214° Southwest 390 449 38,000  Level Memphis Center
Fri 01:39:44 PM 35.8175 -93.6339 216° Southwest 390 449 38,000  Level Memphis Center
Fri 01:40:45 PM 35.7300 -93.7097 215° Southwest 390 449 38,000  Level Memphis Center
Fri 01:41:44 PM 35.6403 -93.7828 214° Southwest 390 449 38,000  Level Memphis Center
Fri 01:42:44 PM 35.5508 -93.8581 214° Southwest 390 449 38,000  Level Memphis Center
Fri 01:43:45 PM 35.4653 -93.9308 215° Southwest 390 449 38,000  Level Memphis Center
Fri 01:44:45 PM 35.3775 -94.0061 215° Southwest 390 449 38,000  Level Memphis Center
Fri 01:45:45 PM 35.2897 -94.0786 214° Southwest 390 449 38,000  Level Memphis Center
Fri 01:47:32 PM 35.1339 -94.2122 215° Southwest 399 459 38,000  Level Fort Worth Center
Fri 01:48:32 PM 35.0522 -94.2814 215° Southwest 387 445 38,000  Level Fort Worth Center
Fri 01:49:32 PM 34.9644 -94.3581 216° Southwest 382 440 38,000  Level Fort Worth Center
Fri 01:50:32 PM 34.8764 -94.4269 213° Southwest 382 440 38,000  Level Fort Worth Center
Fri 01:51:32 PM 34.7822 -94.5061 215° Southwest 387 445 38,000  Level Fort Worth Center
Fri 01:52:32 PM 34.6944 -94.5800 215° Southwest 387 445 38,000  Level Fort Worth Center
Fri 01:53:32 PM 34.6042 -94.6536 214° Southwest 392 451 38,000  Level Fort Worth Center
Fri 01:54:32 PM 34.5161 -94.7294 215° Southwest 392 451 38,000  Level Fort Worth Center
Fri 01:55:32 PM 34.4278 -94.8000 213° Southwest 392 451 38,000  Level Fort Worth Center
Fri 01:56:32 PM 34.3375 -94.8758 215° Southwest 392 451 38,000  Level Fort Worth Center
Fri 01:57:32 PM 34.2658 -94.9358 215° Southwest 392 451 38,000  Level Fort Worth Center
Fri 01:58:32 PM 34.1631 -95.0164 213° Southwest 392 451 38,000  Level Fort Worth Center
Fri 01:59:32 PM 34.0725 -95.0917 215° Southwest 392 451 38,000  Level Fort Worth Center
Fri 02:00:32 PM 33.9842 -95.1642 214° Southwest 392 451 38,000  Level Fort Worth Center
Fri 02:01:32 PM 33.8956 -95.2314 212° Southwest 392 451 38,000  Level Fort Worth Center
Fri 02:02:32 PM 33.8072 -95.3061 215° Southwest 392 451 38,000  Level Fort Worth Center
Fri 02:03:32 PM 33.7164 -95.3758 213° Southwest 392 451 38,000  Level Fort Worth Center
Fri 02:04:32 PM 33.6281 -95.4503 215° Southwest 392 451 38,000  Level Fort Worth Center
Fri 02:05:32 PM 33.5372 -95.5219 213° Southwest 392 451 38,000  Level Fort Worth Center
Fri 02:06:32 PM 33.4422 -95.5936 212° Southwest 398 458 38,000  Level Fort Worth Center
Fri 02:07:32 PM 33.3556 -95.6650 215° Southwest 393 452 38,000  Level Fort Worth Center
Fri 02:08:32 PM 33.2669 -95.7364 214° Southwest 393 452 38,000  Level Fort Worth Center
Fri 02:09:32 PM 33.1739 -95.8103 214° Southwest 398 458 38,000  Level Fort Worth Center
Fri 02:10:32 PM 33.0933 -95.8736 213° Southwest 398 458 38,000  Level Fort Worth Center
Fri 02:11:32 PM 33.0022 -95.9444 213° Southwest 398 458 38,000  Level Fort Worth Center
Fri 02:12:32 PM 32.9133 -96.0153 214° Southwest 393 452 38,000  Level Fort Worth Center
Fri 02:13:32 PM 32.8200 -96.0858 212° Southwest 398 458 38,000  Level Fort Worth Center
Fri 02:14:32 PM 32.7292 -96.1589 214° Southwest 398 458 38,000  Level Fort Worth Center
Fri 02:15:32 PM 32.6294 -96.2367 213° Southwest 392 451 38,000  Level Fort Worth Center
Fri 02:16:32 PM 32.5406 -96.3069 214° Southwest 397 457 38,000  Level Fort Worth Center
Fri 02:17:32 PM 32.4514 -96.3769 214° Southwest 397 457 38,000  Level Fort Worth Center
Fri 02:18:32 PM 32.3578 -96.4469 212° Southwest 397 457 38,000  Level Fort Worth Center
Fri 02:19:32 PM 32.2644 -96.5192 213° Southwest 397 457 38,000  Level Fort Worth Center
Fri 02:20:32 PM 32.1625 -96.5717 204° Southwest 397 457 38,000  Level Fort Worth Center
Fri 02:21:32 PM 32.0606 -96.6289 205° Southwest 402 463 38,000  Level Fort Worth Center
Fri 02:23:10 PM 31.9122 -96.7114 205° Southwest 401 461 38,000  Level Houston Center
Fri 02:23:32 PM 31.8628 -96.7383 205° Southwest 397 457 38,000  Level Fort Worth Center
Fri 02:24:32 PM 31.7608 -96.7953 205° Southwest 403 464 38,000  Level Fort Worth Center
Fri 02:25:32 PM 31.6608 -96.8494 205° Southwest 403 464 38,000  Level Fort Worth Center
Fri 02:26:16 PM 31.5914 -96.8839 203° Southwest 395 455 38,000  Level Houston Center
Fri 02:27:18 PM 31.4914 -96.9378 205° Southwest 393 452 38,000  Level Houston Center
Fri 02:28:20 PM 31.3903 -96.9917 204° Southwest 394 453 38,000  Level Houston Center
Fri 02:29:22 PM 31.2903 -97.0464 205° Southwest 393 452 38,000 -145 Level Houston Center
Fri 02:30:24 PM 31.1894 -97.1006 205° Southwest 394 453 37,700 -672 Descending Houston Center
Fri 02:31:27 PM 31.0692 -97.1644 204° Southwest 401 461 36,600 -960 Descending Houston Center
Fri 02:32:29 PM 30.9761 -97.2144 205° Southwest 408 470 35,700 -871 Descending Houston Center
Fri 02:33:31 PM 30.8744 -97.2689 205° Southwest 405 466 34,800 -1,016 Descending Houston Center
Fri 02:34:33 PM 30.7453 -97.3350 204° Southwest 415 478 33,600 -1,597 Descending Houston Center
Fri 02:35:35 PM 30.6414 -97.3908 205° Southwest 409 471 31,500 -2,177 Descending Houston Center
Fri 02:36:37 PM 30.5400 -97.4444 204° Southwest 398 458 29,100 -2,274 Descending Houston Center
Fri 02:37:39 PM 30.4433 -97.4972 205° Southwest 384 442 26,800 -2,177 Descending Houston Center
Fri 02:38:41 PM 30.3514 -97.5475 205° Southwest 365 420 24,600 -2,081 Descending Houston Center
Fri 02:39:43 PM 30.2681 -97.6072 212° Southwest 350 403 22,500 -2,016 Descending Houston Center
Fri 02:40:46 PM 30.1856 -97.6631 210° Southwest 341 392 20,400 -1,958 Descending Houston Center
Fri 02:41:18 PM 30.1450 -97.6925 212° Southwest 334 384 19,400 -2,129 Descending Houston Center
Fri 02:41:48 PM 30.0936 -97.7278 211° Southwest 330 380 18,200 -1,791 Descending Houston Center
Fri 02:42:25 PM 30.0467 -97.7608 211° Southwest 328 377 17,400 -1,742 Descending Houston Center
Fri 02:42:50 PM 30.0142 -97.7817 209° Southwest 337 388 16,400 -2,656 Descending Houston Center
Fri 02:43:26 PM 29.9639 -97.8172 211° Southwest 344 396 14,700 -2,516 Descending Houston Center
Fri 02:43:52 PM 29.9250 -97.8433 210° Southwest 346 398 13,800 -1,770 Descending Houston Center
Fri 02:44:27 PM 29.8867 -97.8897 226° Southwest 342 394 12,900 -677 Descending Houston Center
Fri 02:44:54 PM 29.8708 -97.9269 244° Southwest 336 387 13,100 98 Climbing Houston Center
Fri 02:45:28 PM 29.8453 -97.9842 243° Southwest 320 368 13,000  Descending Houston Center
Fri 02:45:56 PM 29.8281 -98.0247 244° Southwest 320 368 13,100  Climbing Houston Center
Fri 02:46:29 PM 29.8078 -98.0756 245° Southwest 319 367 13,000 -581 Descending Houston Center
Fri 02:46:58 PM 29.7897 -98.1172 243° Southwest 320 368 12,500 -1,600 Descending Houston Center
Fri 02:47:29 PM 29.7703 -98.1669 246° West 317 365 11,400 -2,032 Descending Houston Center
Fri 02:48:00 PM 29.7486 -98.2131 242° Southwest 310 357 10,400 -1,475 Descending Houston Center
Fri 02:48:30 PM 29.7322 -98.2533 245° Southwest 303 349 9,900 -968 Descending Houston Center
Fri 02:49:02 PM 29.7133 -98.2964 243° Southwest 292 336 9,400 -1,164 Descending Houston Center
Fri 02:49:37 PM 29.6922 -98.3450 243° Southwest 273 314 8,600 -1,524 Descending Houston Center
Fri 02:50:05 PM 29.6825 -98.3822 253° West 273 314 7,800 -1,855 Descending Houston Center
Fri 02:50:32 PM 29.6764 -98.4214 260° West 275 316 6,900 -1,548 Descending Houston Center
Fri 02:51:07 PM 29.6672 -98.4672 257° West 297 342 6,200 -1,075 Descending Houston Center
Fri 02:51:39 PM 29.6594 -98.5125 259° West 264 304 5,700 -581 Descending Houston Center
Fri 02:52:09 PM 29.6522 -98.5497 257° West 236 272 5,600 -197 Descending Houston Center
Fri 02:52:40 PM 29.6422 -98.5769 247° West 160 184 5,500 -1,065 Descending Houston Center
Fri 02:53:11 PM 29.6236 -98.5711 165° South 160 184 4,500 -1,889 Descending Houston Center
Fri 02:53:34 PM 29.6094 -98.5639 156° South 145 167 3,800 -1,742 Descending Houston Center
Fri 02:54:13 PM 29.5850 -98.5392 139° Southeast 159 183 2,700 -1,672 Descending Houston Center
Fri 02:54:35 PM 29.5747 -98.5272 135° Southeast 150 173 2,100 -1,258 Descending Houston Center
Fri 02:55:15 PM 29.5586 -98.5044 129° Southeast 147 169 1,400 -1,082 Descending Houston Center
Fri 02:55:36 PM 29.5486 -98.4944 139° Southeast 135 155 1,000 -581 Descending Houston Center
Fri 02:56:17 PM 29.5344 -98.4733 128° Southeast 135 155 800 -293 Descending Houston Center
Fri 02:58:00 PM 29.5333 -98.4667 16° North  Level FlightAware Approximate
Fri 03:05:00 PM 29.5340 -98.4691 16° North  Level Estimated

Login

Don't have an account? Register now (free) for customized features, flight alerts, and more!